Time;durP1;ratioP1;P1;durP2;ratioP2;P2;SDS_P1;SDS_P2;PMS_P1;PMS_P2;Temp;Humidity;BMP_temperature;BMP_pressure;BME280_temperature;BME280_humidity;BME280_pressure;Samples;Min_cycle;Max_cycle;Signal;HPM_P1;HPM_P2
2021/10/26 00:01:53;;;;;;;64.27;28.05;;;;;;;0.33;70.26;101464.73;1429640;90;21413;-94
2021/10/26 00:04:21;;;;;;;56.20;28.27;;;;;;;0.32;70.11;101463.51;1438841;90;21508;-92
2021/10/26 00:06:49;;;;;;;55.80;25.55;;;;;;;0.34;70.85;101461.67;1444520;90;21361;-94
2021/10/26 00:09:16;;;;;;;55.30;26.02;;;;;;;0.31;72.09;101460.03;1444029;88;21413;-94
2021/10/26 00:11:44;;;;;;;59.18;26.23;;;;;;;0.30;71.76;101455.73;1447117;89;22502;-92
2021/10/26 00:14:12;;;;;;;56.20;25.52;;;;;;;0.30;72.37;101454.90;1453297;90;21436;-91
2021/10/26 00:16:39;;;;;;;52.50;26.23;;;;;;;0.31;72.23;101457.89;1433615;89;21361;-92
2021/10/26 00:19:06;;;;;;;55.88;26.80;;;;;;;0.35;71.68;101453.82;1443858;90;21406;-92
2021/10/26 00:21:34;;;;;;;58.35;27.95;;;;;;;0.35;72.31;101448.61;1445407;90;21396;-91
2021/10/26 00:24:01;;;;;;;57.85;26.17;;;;;;;0.30;73.34;101449.69;1427120;89;21511;-91
2021/10/26 00:26:29;;;;;;;59.55;28.73;;;;;;;0.28;72.87;101444.52;1435802;90;21342;-94
2021/10/26 00:28:56;;;;;;;61.35;27.58;;;;;;;0.25;72.57;101445.94;1438925;90;21378;-93
2021/10/26 00:31:24;;;;;;;56.48;27.48;;;;;;;0.26;72.49;101442.88;1433326;89;22361;-94
2021/10/26 00:33:53;;;;;;;55.05;28.47;;;;;;;0.24;72.80;101436.91;1455820;90;21467;-94
2021/10/26 00:36:21;;;;;;;56.60;26.73;;;;;;;0.25;72.47;101431.62;1442990;89;21430;-93
2021/10/26 00:38:48;;;;;;;58.65;27.30;;;;;;;0.27;72.50;101429.81;1446593;88;21331;-92
2021/10/26 00:41:16;;;;;;;49.23;24.40;;;;;;;0.22;72.12;101427.38;1463884;88;21471;-93
2021/10/26 00:43:43;;;;;;;50.38;25.45;;;;;;;0.19;71.51;101431.84;1437788;88;21505;-92
2021/10/26 00:46:12;;;;;;;51.08;25.57;;;;;;;0.14;71.75;101428.56;1427305;90;22435;-90
2021/10/26 00:48:39;;;;;;;56.75;26.10;;;;;;;0.10;71.17;101428.29;1439244;90;21490;-91
2021/10/26 00:51:09;;;;;;;59.20;26.27;;;;;;;0.03;71.08;101430.70;1425818;91;22310;-92
2021/10/26 00:53:37;;;;;;;55.25;27.27;;;;;;;-0.01;70.74;101423.01;1500291;90;21291;-90
2021/10/26 00:56:05;;;;;;;49.73;23.02;;;;;;;-0.04;70.60;101422.28;1507508;90;21210;-90
2021/10/26 00:58:32;;;;;;;51.73;23.98;;;;;;;-0.07;70.96;101421.94;1511976;90;21275;-90
2021/10/26 01:00:59;;;;;;;50.63;26.87;;;;;;;-0.08;70.99;101421.55;1474115;90;21481;-91
2021/10/26 01:03:27;;;;;;;50.73;25.97;;;;;;;-0.05;71.31;101422.73;1447501;90;21526;-91
2021/10/26 01:05:54;;;;;;;64.58;27.52;;;;;;;0.00;70.79;101423.88;1443419;89;23574;-91
2021/10/26 01:08:21;;;;;;;59.03;27.27;;;;;;;0.08;70.82;101415.77;1442971;90;21546;-91
2021/10/26 01:10:51;;;;;;;65.62;28.45;;;;;;;0.13;71.23;101412.09;1442922;90;21541;-91
2021/10/26 01:13:24;;;;;;;52.15;24.82;;;;;;;0.10;71.31;101409.61;1432944;90;21568;-90
2021/10/26 01:15:57;;;;;;;50.23;22.93;;;;;;;0.07;71.47;101410.19;1437278;90;21349;-92
2021/10/26 01:18:26;;;;;;;47.13;25.17;;;;;;;0.09;72.28;101409.69;1454817;90;21379;-91
2021/10/26 01:20:54;;;;;;;50.40;23.73;;;;;;;0.03;72.97;101412.48;1439546;89;21511;-91
2021/10/26 01:23:23;;;;;;;55.98;25.82;;;;;;;-0.02;72.75;101410.06;1443863;90;21456;-92
2021/10/26 01:25:50;;;;;;;48.13;24.12;;;;;;;-0.11;71.92;101408.65;1438496;90;21915;-92
2021/10/26 01:28:18;;;;;;;48.38;24.52;;;;;;;-0.16;71.80;101410.56;1437328;89;21361;-93
2021/10/26 01:30:45;;;;;;;55.83;24.90;;;;;;;-0.18;71.84;101411.05;1447345;90;21434;-92
2021/10/26 01:33:13;;;;;;;51.85;25.40;;;;;;;-0.22;72.11;101412.55;1443630;90;21383;-94
2021/10/26 01:35:41;;;;;;;57.33;25.27;;;;;;;-0.25;71.79;101410.89;1441705;90;22263;-93
2021/10/26 01:38:08;;;;;;;52.62;25.85;;;;;;;-0.27;72.32;101407.48;1450792;89;21489;-93
2021/10/26 01:40:36;;;;;;;49.58;24.07;;;;;;;-0.33;71.79;101402.05;1439038;90;21649;-92
2021/10/26 01:43:04;;;;;;;47.30;23.47;;;;;;;-0.38;71.74;101399.21;1432143;90;21501;-94
2021/10/26 01:45:32;;;;;;;49.75;25.08;;;;;;;-0.42;71.56;101397.63;1443883;90;23373;-93
2021/10/26 01:47:59;;;;;;;51.73;24.30;;;;;;;-0.43;71.66;101401.12;1457161;89;21479;-93
2021/10/26 01:50:26;;;;;;;47.25;23.55;;;;;;;-0.44;72.47;101396.83;1444526;89;21569;-94
2021/10/26 01:52:54;;;;;;;54.18;25.08;;;;;;;-0.47;72.18;101400.38;1454236;90;22462;-94
2021/10/26 01:55:22;;;;;;;51.83;25.65;;;;;;;-0.54;72.08;101399.75;1431776;90;21427;-93
2021/10/26 01:57:50;;;;;;;46.85;24.52;;;;;;;-0.60;71.77;101392.17;1447245;90;22822;-91
2021/10/26 02:00:20;;;;;;;43.05;22.42;;;;;;;-0.61;71.78;101387.84;1447643;89;21412;-91
2021/10/26 02:02:50;;;;;;;48.30;23.57;;;;;;;-0.62;72.24;101382.72;1445883;90;21382;-91
2021/10/26 02:05:18;;;;;;;40.28;21.87;;;;;;;-0.69;71.57;101378.19;1451205;89;22211;-91
2021/10/26 02:07:46;;;;;;;43.90;23.55;;;;;;;-0.77;71.22;101376.30;1448462;90;22373;-91
2021/10/26 02:10:15;;;;;;;45.70;23.20;;;;;;;-0.78;71.51;101372.82;1448032;89;22246;-92
2021/10/26 02:12:43;;;;;;;48.02;22.70;;;;;;;-0.78;71.31;101377.17;1441702;90;21375;-92
2021/10/26 02:15:10;;;;;;;45.35;22.07;;;;;;;-0.84;71.53;101373.48;1444463;90;21441;-91
2021/10/26 02:17:37;;;;;;;43.58;23.05;;;;;;;-0.88;71.71;101373.20;1447610;90;21480;-91
2021/10/26 02:20:06;;;;;;;45.92;24.80;;;;;;;-0.91;72.13;101367.66;1442049;90;21523;-91
2021/10/26 02:22:33;;;;;;;51.02;24.77;;;;;;;-0.95;72.57;101370.81;1442280;90;21367;-92
2021/10/26 02:25:00;;;;;;;41.53;23.77;;;;;;;-1.04;73.27;101372.84;1447792;89;21676;-90
2021/10/26 02:27:28;;;;;;;46.28;22.93;;;;;;;-1.10;74.11;101376.95;1440365;90;22395;-91
2021/10/26 02:29:55;;;;;;;44.50;22.70;;;;;;;-1.16;74.46;101372.80;1435329;90;21456;-90
2021/10/26 02:32:22;;;;;;;41.20;21.77;;;;;;;-1.16;74.03;101368.91;1423849;90;21301;-90
2021/10/26 02:34:49;;;;;;;48.05;23.12;;;;;;;-1.16;73.73;101368.45;1443872;90;21924;-90
2021/10/26 02:37:16;;;;;;;53.02;25.25;;;;;;;-1.16;73.68;101358.06;1443427;89;21412;-90
2021/10/26 02:39:43;;;;;;;49.67;24.87;;;;;;;-1.20;73.54;101362.97;1445717;90;21338;-91
2021/10/26 02:42:10;;;;;;;50.03;24.82;;;;;;;-1.22;73.13;101360.02;1440265;90;21332;-90
2021/10/26 02:44:37;;;;;;;47.58;24.98;;;;;;;-1.24;73.06;101356.61;1435941;90;21360;-91
2021/10/26 02:47:05;;;;;;;49.65;24.60;;;;;;;-1.23;73.40;101357.88;1443560;90;21368;-90
2021/10/26 02:49:32;;;;;;;49.65;23.42;;;;;;;-1.24;73.97;101357.45;1453437;90;21545;-91
2021/10/26 02:51:59;;;;;;;50.28;25.30;;;;;;;-1.22;74.11;101360.02;1456357;90;21973;-91
2021/10/26 02:54:26;;;;;;;45.52;25.32;;;;;;;-1.23;74.12;101357.03;1440559;90;21353;-90
2021/10/26 02:56:53;;;;;;;46.45;23.45;;;;;;;-1.23;74.28;101363.52;1449412;89;22505;-89
2021/10/26 02:59:21;;;;;;;48.00;24.10;;;;;;;-1.23;74.54;101354.44;1446581;89;22269;-90
2021/10/26 03:01:48;;;;;;;43.75;24.30;;;;;;;-1.20;74.21;101350.44;1446106;90;22469;-90
2021/10/26 03:04:16;;;;;;;49.70;26.85;;;;;;;-1.19;74.64;101358.62;1436184;90;21398;-91
2021/10/26 03:06:43;;;;;;;48.50;26.48;;;;;;;-1.19;74.04;101346.47;1439172;89;21449;-92
2021/10/26 03:09:11;;;;;;;44.25;25.02;;;;;;;-1.21;74.25;101347.42;1437955;90;21449;-90
2021/10/26 03:11:39;;;;;;;62.00;25.90;;;;;;;-1.21;74.23;101351.31;1444115;90;21404;-91
2021/10/26 03:14:06;;;;;;;41.90;22.25;;;;;;;-1.19;74.42;101349.52;1444336;89;21435;-91
2021/10/26 03:16:33;;;;;;;41.00;22.70;;;;;;;-1.15;73.68;101344.64;1443278;90;23363;-91
2021/10/26 03:19:04;;;;;;;44.42;23.27;;;;;;;-1.14;74.12;101341.98;1423585;90;22491;-90
2021/10/26 03:21:31;;;;;;;48.20;25.65;;;;;;;-1.18;73.82;101346.89;1421719;91;21584;-93
2021/10/26 03:23:58;;;;;;;51.15;24.00;;;;;;;-1.20;73.34;101342.64;1421621;91;21599;-91
2021/10/26 03:26:25;;;;;;;43.38;23.90;;;;;;;-1.21;73.59;101337.02;1433913;90;21534;-91
2021/10/26 03:28:52;;;;;;;46.10;22.93;;;;;;;-1.19;73.56;101339.98;1424029;90;21452;-93
2021/10/26 03:31:21;;;;;;;43.83;23.15;;;;;;;-1.16;73.62;101341.63;1441029;89;23526;-92
2021/10/26 03:33:48;;;;;;;46.10;22.62;;;;;;;-1.15;73.88;101332.50;1452624;89;21409;-94
2021/10/26 03:36:15;;;;;;;46.58;24.35;;;;;;;-1.14;73.71;101332.05;1446134;90;23229;-94
2021/10/26 03:38:43;;;;;;;52.50;24.47;;;;;;;-1.18;73.87;101335.63;1439987;89;21438;-92
2021/10/26 03:41:11;;;;;;;54.42;25.05;;;;;;;-1.22;74.19;101338.78;1427517;90;23654;-93
2021/10/26 03:43:38;;;;;;;44.25;23.50;;;;;;;-1.26;73.03;101333.75;1437602;90;21482;-92
2021/10/26 03:46:05;;;;;;;39.70;22.13;;;;;;;-1.30;72.59;101341.23;1433913;91;21342;-92
2021/10/26 03:48:33;;;;;;;48.20;22.07;;;;;;;-1.34;72.03;101337.05;1441013;90;21552;-94
2021/10/26 03:51:00;;;;;;;43.08;22.02;;;;;;;-1.43;71.58;101332.54;1443012;89;21571;-93
2021/10/26 03:53:33;;;;;;;48.35;23.70;;;;;;;-1.48;71.58;101337.02;1444317;90;21290;-93
2021/10/26 03:56:01;;;;;;;42.20;22.45;;;;;;;-1.53;71.62;101332.88;1458474;88;21474;-92
2021/10/26 03:58:29;;;;;;;42.10;22.90;;;;;;;-1.60;71.93;101334.82;1440535;90;22317;-93
2021/10/26 04:00:56;;;;;;;42.23;23.35;;;;;;;-1.63;72.45;101333.16;1434283;90;21490;-96
2021/10/26 04:03:24;;;;;;;43.25;24.30;;;;;;;-1.65;72.50;101328.91;1435629;90;21283;-95
2021/10/26 04:08:24;;;;;;;48.83;24.27;;;;;;;-1.66;72.90;101325.47;1439136;90;21379;-95
2021/10/26 04:10:55;;;;;;;52.50;27.65;;;;;;;-1.70;72.73;101330.80;1442836;90;21422;-93
2021/10/26 04:13:24;;;;;;;49.03;26.07;;;;;;;-1.77;73.45;101327.55;1441342;90;21400;-93
2021/10/26 04:15:54;;;;;;;58.73;28.05;;;;;;;-1.79;73.35;101324.59;1427748;90;21378;-92
2021/10/26 04:18:25;;;;;;;56.85;27.25;;;;;;;-1.83;73.04;101320.80;1451982;90;21453;-95
2021/10/26 04:20:53;;;;;;;72.20;29.92;;;;;;;-1.84;72.94;101321.70;1438537;90;21289;-94
2021/10/26 04:23:23;;;;;;;66.33;27.95;;;;;;;-1.83;72.98;101318.20;1440741;90;21350;-91
2021/10/26 04:25:50;;;;;;;58.13;28.07;;;;;;;-1.77;72.72;101315.88;1428698;91;21525;-91
2021/10/26 04:28:18;;;;;;;71.70;33.05;;;;;;;-1.69;72.72;101316.48;1435233;91;22251;-91
2021/10/26 04:30:46;;;;;;;75.85;34.38;;;;;;;-1.65;72.51;101312.05;1429637;91;21482;-91
2021/10/26 04:33:14;;;;;;;76.67;37.13;;;;;;;-1.63;72.10;101314.15;1432864;91;22465;-91
2021/10/26 04:35:42;;;;;;;68.60;30.55;;;;;;;-1.62;72.55;101315.84;1436738;90;21575;-91
2021/10/26 04:38:09;;;;;;;69.32;32.75;;;;;;;-1.66;73.24;101315.09;1440317;90;22300;-91
2021/10/26 04:40:36;;;;;;;72.70;33.13;;;;;;;-1.62;73.19;101319.73;1442173;90;21298;-93
2021/10/26 04:43:04;;;;;;;65.35;32.38;;;;;;;-1.60;72.82;101319.24;1452632;89;21445;-91
2021/10/26 04:45:32;;;;;;;71.67;31.33;;;;;;;-1.59;73.19;101320.93;1438101;90;21379;-92
2021/10/26 04:48:00;;;;;;;62.20;30.68;;;;;;;-1.58;72.88;101313.56;1439265;90;21385;-92
2021/10/26 04:50:32;;;;;;;74.62;34.65;;;;;;;-1.56;72.81;101318.23;1431112;90;21511;-92
2021/10/26 04:52:57;;;;;;;58.58;30.10;;;;;;;-1.54;73.00;101318.20;1433598;91;21696;-91
2021/10/26 04:55:24;;;;;;;64.75;27.52;;;;;;;-1.56;73.15;101319.53;1442147;91;21542;-92
2021/10/26 04:57:51;;;;;;;61.00;29.20;;;;;;;-1.62;73.38;101319.28;1432758;90;21379;-93
2021/10/26 05:00:18;;;;;;;54.67;28.17;;;;;;;-1.64;73.04;101317.63;1450891;90;22273;-92
2021/10/26 05:02:45;;;;;;;57.43;26.62;;;;;;;-1.67;72.42;101315.13;1452455;86;22701;-95
2021/10/26 05:05:12;;;;;;;53.55;27.25;;;;;;;-1.73;71.93;101316.62;1438524;87;21576;-95
2021/10/26 05:07:40;;;;;;;55.78;28.92;;;;;;;-1.83;71.39;101318.20;1469021;88;21568;-92
2021/10/26 05:10:08;;;;;;;60.45;28.77;;;;;;;-1.88;71.57;101321.83;1462463;88;21353;-94
2021/10/26 05:12:36;;;;;;;53.25;25.17;;;;;;;-1.93;71.69;101324.55;1432287;86;21766;-94
2021/10/26 05:15:04;;;;;;;59.40;29.82;;;;;;;-1.95;71.48;101322.48;1432100;90;21394;-93
2021/10/26 05:17:32;;;;;;;66.72;35.17;;;;;;;-1.95;71.50;101318.59;1442675;90;21357;-93
2021/10/26 05:20:00;;;;;;;68.60;35.33;;;;;;;-1.97;72.05;101330.74;1455313;89;21364;-94
2021/10/26 05:22:29;;;;;;;60.58;30.23;;;;;;;-1.99;71.95;101341.61;1444283;89;21386;-93
2021/10/26 05:24:57;;;;;;;75.87;36.40;;;;;;;-1.93;71.81;101344.02;1452697;89;21837;-93
2021/10/26 05:27:26;;;;;;;74.97;33.30;;;;;;;-1.79;72.54;101334.52;1454986;89;21356;-96
2021/10/26 05:29:54;;;;;;;56.63;30.35;;;;;;;-1.72;72.07;101339.10;1451459;89;21407;-93
2021/10/26 05:32:22;;;;;;;59.70;30.02;;;;;;;-1.72;71.59;101340.40;1447490;89;22354;-92
2021/10/26 05:34:49;;;;;;;57.23;30.60;;;;;;;-1.73;71.28;101338.67;1455117;89;21435;-93
2021/10/26 05:37:16;;;;;;;73.28;35.98;;;;;;;-1.70;71.42;101335.98;1454943;89;21444;-92
2021/10/26 05:39:44;;;;;;;55.60;29.98;;;;;;;-1.66;71.69;101346.70;1458325;89;21444;-91
2021/10/26 05:42:11;;;;;;;70.25;32.83;;;;;;;-1.65;71.98;101347.93;1459287;89;22303;-93
2021/10/26 05:44:38;;;;;;;52.50;28.15;;;;;;;-1.62;71.91;101349.13;1453996;89;22450;-93
2021/10/26 05:47:05;;;;;;;54.75;27.62;;;;;;;-1.55;72.20;101348.52;1454244;89;21385;-91
2021/10/26 05:49:33;;;;;;;78.57;37.08;;;;;;;-1.46;71.86;101345.63;1459608;89;21371;-92
2021/10/26 05:52:01;;;;;;;94.13;42.03;;;;;;;-1.34;71.86;101346.13;1459200;89;21828;-92
2021/10/26 05:54:28;;;;;;;82.78;40.28;;;;;;;-1.22;72.17;101347.03;1453266;89;21376;-93
2021/10/26 05:56:55;;;;;;;82.75;38.02;;;;;;;-1.09;71.73;101356.13;1463987;89;21346;-92
2021/10/26 05:59:22;;;;;;;96.35;40.12;;;;;;;-0.98;71.74;101353.16;1461835;89;21427;-92
2021/10/26 06:01:49;;;;;;;95.03;43.05;;;;;;;-0.97;72.09;101358.31;1471112;89;22242;-92
2021/10/26 06:04:17;;;;;;;71.92;38.50;;;;;;;-0.92;71.93;101353.82;1466757;89;22218;-93
2021/10/26 06:06:44;;;;;;;95.42;37.93;;;;;;;-0.79;72.38;101352.94;1455901;89;21390;-93
2021/10/26 06:09:14;;;;;;;88.95;40.33;;;;;;;-0.73;72.09;101354.48;1462255;88;21481;-94
2021/10/26 06:11:41;;;;;;;94.62;39.25;;;;;;;-0.62;71.89;101351.52;1459621;89;21464;-93
2021/10/26 06:14:08;;;;;;;84.30;37.13;;;;;;;-0.53;72.48;101357.23;1461421;89;21546;-92
2021/10/26 06:16:37;;;;;;;91.47;38.30;;;;;;;-0.51;72.56;101359.34;1462474;89;21442;-92
2021/10/26 06:19:04;;;;;;;92.35;42.83;;;;;;;-0.44;72.43;101359.12;1463425;89;21472;-93
2021/10/26 06:21:31;;;;;;;113.65;43.68;;;;;;;-0.36;72.41;101364.90;1456303;89;21501;-92
2021/10/26 06:23:59;;;;;;;83.17;37.83;;;;;;;-0.26;72.21;101370.16;1463257;89;21398;-93
2021/10/26 06:26:27;;;;;;;80.75;37.55;;;;;;;-0.14;72.09;101368.42;1446945;89;21369;-93
2021/10/26 06:28:55;;;;;;;83.72;35.38;;;;;;;0.04;72.03;101369.95;1457327;89;21413;-90
2021/10/26 06:31:23;;;;;;;66.35;34.27;;;;;;;0.21;72.14;101367.10;1451686;89;21405;-89
2021/10/26 06:33:50;;;;;;;60.08;31.05;;;;;;;0.38;71.97;101365.16;1455980;88;21427;-89
2021/10/26 06:36:18;;;;;;;58.70;32.98;;;;;;;0.48;71.92;101366.94;1449358;89;21487;-91
2021/10/26 06:38:47;;;;;;;65.90;31.45;;;;;;;0.51;71.94;101369.88;1463502;88;21369;-90
2021/10/26 06:41:14;;;;;;;70.40;32.55;;;;;;;0.56;71.90;101365.34;1455466;89;21406;-91
2021/10/26 06:43:42;;;;;;;75.65;32.70;;;;;;;0.64;72.17;101377.16;1441894;89;21353;-91
2021/10/26 06:46:10;;;;;;;64.67;31.57;;;;;;;0.78;72.15;101380.98;1463044;89;21398;-91
2021/10/26 06:48:37;;;;;;;67.90;33.67;;;;;;;0.97;71.98;101381.06;1460533;89;21339;-91
2021/10/26 06:51:05;;;;;;;62.33;32.70;;;;;;;1.15;71.80;101380.75;1461097;89;22387;-93
2021/10/26 06:53:36;;;;;;;55.27;31.23;;;;;;;1.26;71.45;101379.85;1452667;89;21367;-93
2021/10/26 06:56:06;;;;;;;60.27;30.93;;;;;;;1.33;71.47;101383.45;1463719;89;22060;-93
2021/10/26 06:58:31;;;;;;;69.62;35.38;;;;;;;1.44;71.38;101386.04;1441559;87;21872;-92
2021/10/26 07:01:06;;;;;;;71.47;38.17;;;;;;;1.55;71.28;101381.21;1398009;87;21683;-86
2021/10/26 07:03:33;;;;;;;81.50;42.00;;;;;;;1.67;71.58;101390.27;1415351;87;21976;-93
2021/10/26 07:06:02;;;;;;;92.67;44.87;;;;;;;1.77;71.14;101391.57;1416191;85;21876;-94
2021/10/26 07:08:33;;;;;;;86.27;44.70;;;;;;;1.94;70.89;101392.97;1396122;87;21865;31
2021/10/26 07:11:04;;;;;;;78.97;42.93;;;;;;;2.12;71.00;101389.98;1390652;87;21954;31
2021/10/26 07:13:38;;;;;;;78.77;44.67;;;;;;;2.26;70.49;101393.28;1409536;85;21781;31
2021/10/26 07:16:11;;;;;;;73.77;41.33;;;;;;;2.39;70.34;101387.88;1394324;86;22261;-94
2021/10/26 07:18:38;;;;;;;69.87;41.03;;;;;;;2.50;70.21;101383.44;1433175;90;21400;-94
2021/10/26 07:21:06;;;;;;;75.13;41.73;;;;;;;2.68;69.88;101379.13;1447684;89;21725;-94
2021/10/26 07:23:34;;;;;;;75.70;40.80;;;;;;;2.85;69.53;101380.89;1408821;88;21616;-93
2021/10/26 07:26:02;;;;;;;78.40;39.93;;;;;;;3.02;69.35;101383.56;1438478;90;21584;-93
2021/10/26 07:28:29;;;;;;;69.17;37.20;;;;;;;3.22;69.26;101379.92;1437176;90;21574;-96
2021/10/26 07:30:56;;;;;;;63.77;36.30;;;;;;;3.50;69.19;101379.37;1447432;90;21438;-95
2021/10/26 07:33:31;;;;;;;70.27;36.03;;;;;;;3.78;68.94;101366.17;1454516;90;21676;-94
2021/10/26 07:35:57;;;;;;;57.40;34.80;;;;;;;4.02;68.35;101375.33;1450448;90;21702;-95
2021/10/26 07:38:34;;;;;;;65.47;36.83;;;;;;;4.29;67.89;101375.63;1426121;90;21528;-95
2021/10/26 07:40:59;;;;;;;65.53;37.27;;;;;;;4.55;67.25;101375.12;1444552;90;21714;-94
2021/10/26 07:43:29;;;;;;;61.57;35.13;;;;;;;4.67;66.14;101374.42;1434613;90;22839;-94
2021/10/26 07:45:57;;;;;;;67.10;36.90;;;;;;;4.99;65.60;101366.02;1437420;90;21563;-95
2021/10/26 07:48:26;;;;;;;71.47;38.60;;;;;;;4.99;65.60;101366.02;1424687;90;22001;-94
2021/10/26 07:50:58;;;;;;;67.83;39.07;;;;;;;5.11;64.57;101363.98;1430284;89;22569;-91
2021/10/26 07:53:24;;;;;;;67.73;36.13;;;;;;;5.27;64.63;101376.23;1447834;90;22701;-92
2021/10/26 07:55:57;;;;;;;69.43;37.13;;;;;;;5.70;64.01;101366.63;1423552;90;22137;-92
2021/10/26 07:58:26;;;;;;;135.80;76.83;;;;;;;5.70;64.01;101366.63;1440894;90;22124;-93
2021/10/26 08:00:54;;;;;;;56.23;32.27;;;;;;;5.94;63.54;101369.56;1436854;90;23016;-91
2021/10/26 08:03:22;;;;;;;50.27;32.53;;;;;;;6.18;63.44;101367.18;1429360;90;22102;-91
2021/10/26 08:05:53;;;;;;;65.03;33.83;;;;;;;6.43;62.92;101365.64;1436546;90;22075;-92
2021/10/26 08:08:21;;;;;;;48.25;30.12;;;;;;;6.61;62.75;101356.55;1440838;90;21391;-91
2021/10/26 08:10:48;;;;;;;64.97;32.50;;;;;;;6.84;62.01;101360.80;1434619;90;21397;-91
2021/10/26 08:13:17;;;;;;;57.57;30.63;;;;;;;7.01;61.37;101351.31;1423270;90;21370;-91
2021/10/26 08:15:44;;;;;;;48.43;26.10;;;;;;;7.16;61.25;101342.41;1427634;90;21354;-92
2021/10/26 08:18:11;;;;;;;45.33;25.73;;;;;;;7.36;60.48;101353.36;1431210;90;21421;-92
2021/10/26 08:20:41;;;;;;;60.73;26.70;;;;;;;7.56;60.54;101356.80;1399629;92;21303;-91
2021/10/26 08:23:08;;;;;;;43.13;26.10;;;;;;;7.62;58.29;101348.49;1404200;92;22356;-91
2021/10/26 08:25:40;;;;;;;49.50;25.97;;;;;;;7.68;59.04;101349.83;1428256;91;21497;-91
2021/10/26 08:28:12;;;;;;;48.23;28.77;;;;;;;7.93;59.55;101348.97;1423353;91;21327;-91
2021/10/26 08:31:25;;;;;;;50.30;30.10;;;;;;;8.14;58.96;101347.47;1420073;90;22356;-92
2021/10/26 08:35:50;;;;;;;40.08;23.38;;;;;;;8.51;56.97;101340.86;1436884;90;21472;-91
2021/10/26 08:38:16;;;;;;;59.40;28.23;;;;;;;8.52;54.86;101343.89;1429002;90;21614;-91
2021/10/26 08:40:47;;;;;;;96.77;56.33;;;;;;;8.61;56.51;101340.22;1444306;90;21458;-90
2021/10/26 08:43:21;;;;;;;43.65;28.38;;;;;;;8.72;56.17;101337.15;1441593;90;21548;-92
2021/10/26 08:45:51;;;;;;;53.97;30.13;;;;;;;8.87;55.14;101340.92;1445522;90;21355;-92
2021/10/26 08:48:21;;;;;;;54.70;29.50;;;;;;;9.08;55.41;101338.47;1391343;92;21359;-92
2021/10/26 08:51:00;;;;;;;57.25;28.42;;;;;;;9.26;55.33;101339.25;1439330;90;22368;-91
2021/10/26 08:53:26;;;;;;;51.37;26.00;;;;;;;9.47;54.98;101334.11;1436101;90;21458;-91
2021/10/26 08:56:02;;;;;;;55.17;27.50;;;;;;;9.60;53.15;101334.48;1439751;90;21488;-90
2021/10/26 08:58:32;;;;;;;47.97;26.23;;;;;;;9.75;53.27;101339.88;1405161;92;21358;-92
2021/10/26 09:01:01;;;;;;;57.35;31.93;;;;;;;10.15;53.39;101340.21;1407300;92;22520;-93
2021/10/26 09:03:37;;;;;;;55.93;28.70;;;;;;;10.71;53.35;101336.62;1439048;90;21496;-92
2021/10/26 09:06:06;;;;;;;63.33;30.23;;;;;;;11.44;52.68;101331.41;1439107;90;21517;-93
2021/10/26 09:08:35;;;;;;;54.80;28.50;;;;;;;12.22;51.49;101329.93;1423091;92;21458;-93
2021/10/26 09:11:20;;;;;;;43.73;27.17;;;;;;;12.87;44.18;101318.33;1423205;92;22369;-93
2021/10/26 09:19:26;;;;;;;56.30;35.70;;;;;;;14.41;40.35;101309.92;1418216;92;21393;-93
2021/10/26 09:22:02;;;;;;;28.50;18.77;;;;;;;15.01;42.51;101313.32;1425107;91;21422;-93
2021/10/26 09:24:31;;;;;;;48.43;29.07;;;;;;;15.74;42.18;101309.81;1418768;92;21542;-92
2021/10/26 09:27:04;;;;;;;64.23;39.10;;;;;;;16.43;41.38;101311.03;1425522;92;21518;-93
2021/10/26 09:29:47;;;;;;;22.63;16.13;;;;;;;17.04;39.54;101311.59;1390745;93;21726;-92
2021/10/26 09:32:34;;;;;;;36.75;18.62;;;;;;;17.45;37.98;101316.36;1386947;93;21589;-92
2021/10/26 09:35:15;;;;;;;32.65;23.73;;;;;;;17.76;37.95;101311.59;1415924;92;21938;-93
2021/10/26 09:37:49;;;;;;;22.17;15.50;;;;;;;18.08;37.14;101305.28;1422660;92;21371;-93
2021/10/26 09:40:17;;;;;;;32.55;24.67;;;;;;;18.44;36.78;101301.56;1422732;92;22287;-92
2021/10/26 09:42:51;;;;;;;30.92;20.82;;;;;;;18.92;36.53;101299.52;1426702;92;22479;-92
2021/10/26 09:45:29;;;;;;;33.10;19.17;;;;;;;19.34;35.80;101299.46;1425683;91;21408;-92
2021/10/26 09:48:00;;;;;;;25.55;18.62;;;;;;;19.58;35.25;101296.17;1414990;91;21570;-92
2021/10/26 09:50:31;;;;;;;38.80;25.90;;;;;;;19.17;33.38;101299.30;1424395;91;21607;-93
2021/10/26 09:53:12;;;;;;;30.25;16.07;;;;;;;19.42;34.19;101300.38;1424577;92;21550;-92
2021/10/26 09:55:42;;;;;;;25.23;15.55;;;;;;;19.51;30.19;101290.73;1424951;91;21443;-91
2021/10/26 09:58:15;;;;;;;25.97;16.35;;;;;;;19.51;30.19;101290.73;1421748;90;21414;-93
2021/10/26 10:00:46;;;;;;;16.77;14.10;;;;;;;19.48;32.36;101284.87;1421824;90;21501;-93
2021/10/26 10:03:25;;;;;;;33.28;14.73;;;;;;;19.75;32.87;101284.25;1485744;90;22506;-93
2021/10/26 10:05:59;;;;;;;27.50;16.40;;;;;;;20.12;32.49;101273.53;1444273;90;21311;-94
2021/10/26 10:08:36;;;;;;;89.80;69.72;;;;;;;20.44;31.85;101271.70;1496048;90;23343;-93
2021/10/26 10:11:20;;;;;;;22.55;16.60;;;;;;;20.34;28.49;101262.27;1440471;90;21482;-93
2021/10/26 10:13:56;;;;;;;20.88;15.10;;;;;;;19.67;30.53;101268.23;1422441;90;21481;-94
2021/10/26 10:16:28;;;;;;;26.27;19.75;;;;;;;19.46;31.79;101264.94;1442925;90;21540;-93
2021/10/26 10:18:58;;;;;;;29.72;16.82;;;;;;;19.56;31.48;101261.48;1451686;89;21630;-94
2021/10/26 10:21:29;;;;;;;26.77;17.40;;;;;;;19.69;31.54;101255.46;1451332;89;21442;-93
2021/10/26 10:24:01;;;;;;;25.97;17.15;;;;;;;20.15;31.68;101255.17;1455634;90;21427;-93
2021/10/26 10:26:30;;;;;;;22.90;17.27;;;;;;;20.54;30.92;101245.84;1445015;90;21405;-94
2021/10/26 10:29:01;;;;;;;21.60;15.40;;;;;;;20.34;29.65;101241.62;1435406;89;22215;-94
2021/10/26 10:31:29;;;;;;;23.38;16.48;;;;;;;20.04;29.08;101243.58;1442579;89;21387;-94
2021/10/26 10:33:59;;;;;;;23.62;16.15;;;;;;;19.91;30.40;101236.21;1424129;89;21482;-90
2021/10/26 10:36:27;;;;;;;22.13;15.53;;;;;;;20.02;30.73;101234.38;1428189;91;21635;-90
2021/10/26 10:39:00;;;;;;;28.27;17.30;;;;;;;20.21;30.90;101227.52;1407531;91;21540;-90
2021/10/26 10:41:37;;;;;;;30.60;17.20;;;;;;;20.30;30.46;101225.55;1407510;92;21510;-90
2021/10/26 10:44:08;;;;;;;34.30;20.77;;;;;;;20.65;30.62;101226.50;1439974;89;22296;-89
2021/10/26 10:46:44;;;;;;;37.98;19.35;;;;;;;20.80;30.45;101225.58;1443072;89;21484;-90
2021/10/26 10:49:30;;;;;;;25.10;22.37;;;;;;;21.20;29.75;101223.98;1455252;89;21395;-90
2021/10/26 10:52:09;;;;;;;26.45;16.93;;;;;;;21.44;29.59;101210.59;1452716;89;22614;-91
2021/10/26 10:54:49;;;;;;;26.68;15.80;;;;;;;21.36;28.19;101211.58;1447375;89;21582;-90
2021/10/26 10:57:41;;;;;;;24.72;13.75;;;;;;;20.84;29.34;101209.38;1436204;87;21597;-92
2021/10/26 11:00:22;;;;;;;20.08;14.83;;;;;;;20.70;28.40;101203.89;1468519;88;21732;-90
2021/10/26 11:02:52;;;;;;;23.18;15.45;;;;;;;20.35;28.79;101204.81;1430516;91;22683;-90
2021/10/26 11:05:37;;;;;;;24.37;15.05;;;;;;;20.05;26.70;101202.23;1453861;89;21474;-91
2021/10/26 11:08:39;;;;;;;27.67;20.52;;;;;;;20.04;29.25;101194.69;1432310;91;22495;-90
2021/10/26 11:11:07;;;;;;;42.35;21.87;;;;;;;20.42;28.78;101190.91;1455855;89;21415;-90
2021/10/26 11:13:35;;;;;;;22.00;14.35;;;;;;;20.47;27.04;101188.48;1455399;89;21493;-91
2021/10/26 11:16:09;;;;;;;20.88;14.05;;;;;;;20.41;27.93;101186.56;1452587;89;21385;-90
2021/10/26 11:18:59;;;;;;;26.95;14.93;;;;;;;20.32;28.06;101182.36;1449804;89;22483;-90
2021/10/26 11:21:32;;;;;;;27.98;15.03;;;;;;;20.33;28.41;101179.45;1433582;90;21663;-90
2021/10/26 11:24:05;;;;;;;19.27;13.18;;;;;;;20.57;29.08;101180.95;1435489;91;21398;-91
2021/10/26 11:26:44;;;;;;;18.15;12.93;;;;;;;20.77;28.60;101173.00;1436828;91;21589;-91
2021/10/26 11:29:31;;;;;;;20.08;13.18;;;;;;;20.78;26.57;101173.33;1434653;91;23272;-90
2021/10/26 11:31:58;;;;;;;21.40;12.60;;;;;;;20.83;28.27;101172.23;1431867;91;21612;-90
2021/10/26 11:34:30;;;;;;;21.12;11.93;;;;;;;20.67;27.66;101159.91;1434744;91;22559;-90